AMS weather

Amsterdam Airport Schiphol
Amsterdam, Noord-Holland, Netherlands

Public forecast

Using degrees Celsius for public forecast. Weather courtesy of forecast.io.

METAR (pilot weather report)

Retrieved 2017/09/22 01:25 UTC (18 minutes ago):

EHAM 220125Z 14003KT CAVOK 10/09 Q1018 NOSIG

TAF (pilot weather forecast)

Forecast is more than 12 hours old.

Retrieved 2017/09/21 00:28 UTC (1 day ago):

TAF EHAM 212244Z 2200/2306 15005KT CAVOK PROB40 TEMPO 2205/2211 6000 -RA SCT006 BKN014 PROB30 TEMPO 2207/2211 BKN005 BECMG 2210/2212 31008KT PROB40 TEMPO 2210/2214 7000 -SHRA FEW018CB BKN022 BECMG 2300/2303 18004KT 3000 BR MIFG PROB30 2302/2306 1200 BCFG